sensor_id;sensor_type;location;lat;lon;timestamp;pressure;altitude;pressure_sealevel;temperature;humidity
58239;BME280;44037;55.638;37.356;2023-07-28T00:00:13;97587.03;;;20.18;100.00
58239;BME280;44037;55.638;37.356;2023-07-28T00:02:41;97606.28;;;20.19;100.00
58239;BME280;44037;55.638;37.356;2023-07-28T00:05:09;97622.16;;;20.17;100.00
58239;BME280;44037;55.638;37.356;2023-07-28T00:07:36;97635.59;;;20.13;100.00
58239;BME280;44037;55.638;37.356;2023-07-28T00:10:04;97633.03;;;20.11;100.00
58239;BME280;44037;55.638;37.356;2023-07-28T00:12:32;97623.38;;;20.12;100.00
58239;BME280;44037;55.638;37.356;2023-07-28T00:14:59;97630.34;;;20.13;100.00
58239;BME280;44037;55.638;37.356;2023-07-28T00:17:32;97638.28;;;20.11;100.00
58239;BME280;44037;55.638;37.356;2023-07-28T00:19:59;97649.97;;;20.07;100.00
58239;BME280;44037;55.638;37.356;2023-07-28T00:22:30;97655.50;;;20.02;100.00
58239;BME280;44037;55.638;37.356;2023-07-28T00:24:57;97656.72;;;19.97;100.00
58239;BME280;44037;55.638;37.356;2023-07-28T00:27:24;97664.69;;;19.95;100.00
58239;BME280;44037;55.638;37.356;2023-07-28T00:29:51;97656.03;;;19.93;100.00
58239;BME280;44037;55.638;37.356;2023-07-28T00:32:18;97662.03;;;19.95;100.00
58239;BME280;44037;55.638;37.356;2023-07-28T00:34:46;97656.03;;;19.93;100.00
58239;BME280;44037;55.638;37.356;2023-07-28T00:37:13;97649.94;;;19.92;100.00
58239;BME280;44037;55.638;37.356;2023-07-28T00:39:41;97640.47;;;19.90;100.00
58239;BME280;44037;55.638;37.356;2023-07-28T00:42:08;97636.16;;;19.89;100.00
58239;BME280;44037;55.638;37.356;2023-07-28T00:44:35;97646.66;;;19.89;100.00
58239;BME280;44037;55.638;37.356;2023-07-28T00:47:03;97644.97;;;19.88;100.00
58239;BME280;44037;55.638;37.356;2023-07-28T00:49:30;97637.94;;;19.88;100.00
58239;BME280;44037;55.638;37.356;2023-07-28T00:51:59;97636.41;;;19.84;100.00
58239;BME280;44037;55.638;37.356;2023-07-28T00:54:26;97631.34;;;19.81;100.00
58239;BME280;44037;55.638;37.356;2023-07-28T00:56:54;97627.19;;;19.77;100.00
58239;BME280;44037;55.638;37.356;2023-07-28T00:59:21;97636.13;;;19.74;100.00
58239;BME280;44037;55.638;37.356;2023-07-28T01:01:48;97629.16;;;19.73;100.00
58239;BME280;44037;55.638;37.356;2023-07-28T01:04:15;97623.06;;;19.73;100.00
58239;BME280;44037;55.638;37.356;2023-07-28T01:06:48;97623.25;;;19.70;100.00
58239;BME280;44037;55.638;37.356;2023-07-28T01:09:22;97612.06;;;19.66;100.00
58239;BME280;44037;55.638;37.356;2023-07-28T01:11:54;97613.13;;;19.63;100.00
58239;BME280;44037;55.638;37.356;2023-07-28T01:14:21;97611.69;;;19.58;100.00
58239;BME280;44037;55.638;37.356;2023-07-28T01:16:48;97607.38;;;19.57;100.00
58239;BME280;44037;55.638;37.356;2023-07-28T01:19:17;97595.00;;;19.59;100.00
58239;BME280;44037;55.638;37.356;2023-07-28T01:21:46;97605.50;;;19.59;100.00
58239;BME280;44037;55.638;37.356;2023-07-28T01:24:20;97594.19;;;19.58;100.00
58239;BME280;44037;55.638;37.356;2023-07-28T01:26:50;97596.03;;;19.56;100.00
58239;BME280;44037;55.638;37.356;2023-07-28T01:29:18;97596.03;;;19.56;100.00
58239;BME280;44037;55.638;37.356;2023-07-28T01:31:46;97599.44;;;19.58;100.00
58239;BME280;44037;55.638;37.356;2023-07-28T01:34:14;97591.28;;;19.63;100.00
58239;BME280;44037;55.638;37.356;2023-07-28T01:36:41;97591.28;;;19.63;100.00
58239;BME280;44037;55.638;37.356;2023-07-28T01:39:08;97590.34;;;19.64;100.00
58239;BME280;44037;55.638;37.356;2023-07-28T01:41:36;97578.13;;;19.63;100.00
58239;BME280;44037;55.638;37.356;2023-07-28T01:44:06;97578.13;;;19.63;100.00
58239;BME280;44037;55.638;37.356;2023-07-28T01:46:33;97572.03;;;19.62;100.00
58239;BME280;44037;55.638;37.356;2023-07-28T01:49:00;97575.50;;;19.63;100.00
58239;BME280;44037;55.638;37.356;2023-07-28T01:51:28;97562.16;;;19.66;100.00
58239;BME280;44037;55.638;37.356;2023-07-28T01:53:55;97561.06;;;19.70;100.00
58239;BME280;44037;55.638;37.356;2023-07-28T01:56:22;97558.25;;;19.73;100.00
58239;BME280;44037;55.638;37.356;2023-07-28T01:58:49;97560.75;;;19.75;100.00
58239;BME280;44037;55.638;37.356;2023-07-28T02:01:17;97562.38;;;19.77;100.00
58239;BME280;44037;55.638;37.356;2023-07-28T02:03:44;97567.44;;;19.80;100.00
58239;BME280;44037;55.638;37.356;2023-07-28T02:06:12;97580.56;;;19.80;100.00
58239;BME280;44037;55.638;37.356;2023-07-28T02:08:39;97572.50;;;19.84;100.00
58239;BME280;44037;55.638;37.356;2023-07-28T02:11:06;97557.50;;;19.86;100.00
58239;BME280;44037;55.638;37.356;2023-07-28T02:13:34;97555.91;;;19.83;100.00
58239;BME280;44037;55.638;37.356;2023-07-28T02:16:01;97548.09;;;19.82;100.00
58239;BME280;44037;55.638;37.356;2023-07-28T02:18:30;97552.41;;;19.83;100.00
58239;BME280;44037;55.638;37.356;2023-07-28T02:20:57;97549.72;;;19.84;100.00
58239;BME280;44037;55.638;37.356;2023-07-28T02:23:24;97553.03;;;19.88;100.00
58239;BME280;44037;55.638;37.356;2023-07-28T02:25:51;97556.88;;;19.97;100.00
58239;BME280;44037;55.638;37.356;2023-07-28T02:28:18;97553.94;;;20.01;100.00
58239;BME280;44037;55.638;37.356;2023-07-28T02:30:46;97558.25;;;20.02;100.00
58239;BME280;44037;55.638;37.356;2023-07-28T02:33:13;97577.50;;;20.03;100.00
58239;BME280;44037;55.638;37.356;2023-07-28T02:35:41;97583.59;;;20.03;100.00
58239;BME280;44037;55.638;37.356;2023-07-28T02:38:09;97577.50;;;20.03;100.00
58239;BME280;44037;55.638;37.356;2023-07-28T02:40:36;97596.63;;;20.05;100.00
58239;BME280;44037;55.638;37.356;2023-07-28T02:43:03;97611.47;;;20.06;100.00
58239;BME280;44037;55.638;37.356;2023-07-28T02:45:30;97621.88;;;20.07;100.00
58239;BME280;44037;55.638;37.356;2023-07-28T02:47:57;97628.06;;;20.06;100.00
58239;BME280;44037;55.638;37.356;2023-07-28T02:50:24;97614.38;;;20.01;100.00
58239;BME280;44037;55.638;37.356;2023-07-28T02:52:53;97620.56;;;20.00;100.00
58239;BME280;44037;55.638;37.356;2023-07-28T02:55:20;97610.81;;;20.02;100.00
58239;BME280;44037;55.638;37.356;2023-07-28T02:57:47;97596.44;;;20.08;100.00
58239;BME280;44037;55.638;37.356;2023-07-28T03:00:15;97595.22;;;20.14;100.00
58239;BME280;44037;55.638;37.356;2023-07-28T03:02:42;97594.19;;;20.16;100.00
58239;BME280;44037;55.638;37.356;2023-07-28T03:05:09;97584.41;;;20.18;100.00
58239;BME280;44037;55.638;37.356;2023-07-28T03:07:36;97597.16;;;20.24;100.00
58239;BME280;44037;55.638;37.356;2023-07-28T03:10:06;97617.72;;;20.32;100.00
58239;BME280;44037;55.638;37.356;2023-07-28T03:12:33;97651.97;;;20.45;100.00
58239;BME280;44037;55.638;37.356;2023-07-28T03:15:00;97664.44;;;20.56;100.00
58239;BME280;44037;55.638;37.356;2023-07-28T03:17:29;97664.25;;;20.59;100.00
58239;BME280;44037;55.638;37.356;2023-07-28T03:19:57;97645.00;;;20.59;100.00
58239;BME280;44037;55.638;37.356;2023-07-28T03:22:24;97650.16;;;20.60;100.00
58239;BME280;44037;55.638;37.356;2023-07-28T03:24:51;97646.00;;;20.70;100.00
58239;BME280;44037;55.638;37.356;2023-07-28T03:27:20;97661.41;;;20.91;100.00
58239;BME280;44037;55.638;37.356;2023-07-28T03:29:47;97680.84;;;21.16;100.00
58239;BME280;44037;55.638;37.356;2023-07-28T03:32:14;97679.09;;;21.29;100.00
58239;BME280;44037;55.638;37.356;2023-07-28T03:34:41;97682.75;;;21.27;100.00
58239;BME280;44037;55.638;37.356;2023-07-28T03:37:08;97701.16;;;21.14;100.00
58239;BME280;44037;55.638;37.356;2023-07-28T03:39:35;97720.75;;;20.95;100.00
58239;BME280;44037;55.638;37.356;2023-07-28T03:42:03;97752.09;;;20.85;100.00
58239;BME280;44037;55.638;37.356;2023-07-28T03:44:32;97778.03;;;20.77;100.00
58239;BME280;44037;55.638;37.356;2023-07-28T03:46:59;97784.03;;;20.65;100.00
58239;BME280;44037;55.638;37.356;2023-07-28T03:49:26;97775.31;;;20.50;100.00
58239;BME280;44037;55.638;37.356;2023-07-28T03:51:53;97763.09;;;20.34;100.00
58239;BME280;44037;55.638;37.356;2023-07-28T03:54:21;97730.69;;;20.19;100.00
58239;BME280;44037;55.638;37.356;2023-07-28T03:56:48;97734.13;;;20.05;100.00
58239;BME280;44037;55.638;37.356;2023-07-28T03:59:15;97732.81;;;19.98;100.00
58239;BME280;44037;55.638;37.356;2023-07-28T04:01:44;97709.47;;;19.93;100.00
58239;BME280;44037;55.638;37.356;2023-07-28T04:04:11;97673.03;;;19.87;100.00
58239;BME280;44037;55.638;37.356;2023-07-28T04:06:42;97620.91;;;19.79;100.00
58239;BME280;44037;55.638;37.356;2023-07-28T04:09:10;97548.69;;;19.72;100.00
58239;BME280;44037;55.638;37.356;2023-07-28T04:11:38;97487.22;;;19.60;100.00
58239;BME280;44037;55.638;37.356;2023-07-28T04:14:05;97451.69;;;19.55;100.00
58239;BME280;44037;55.638;37.356;2023-07-28T04:16:32;97406.50;;;19.49;100.00
58239;BME280;44037;55.638;37.356;2023-07-28T04:19:01;97441.75;;;19.45;100.00
58239;BME280;44037;55.638;37.356;2023-07-28T04:21:29;97484.16;;;19.39;100.00
58239;BME280;44037;55.638;37.356;2023-07-28T04:23:56;97508.16;;;19.33;100.00
58239;BME280;44037;55.638;37.356;2023-07-28T04:26:24;97505.72;;;19.30;100.00
58239;BME280;44037;55.638;37.356;2023-07-28T04:28:53;97498.03;;;19.27;100.00
58239;BME280;44037;55.638;37.356;2023-07-28T04:31:21;97496.25;;;19.27;100.00
58239;BME280;44037;55.638;37.356;2023-07-28T04:33:48;97495.03;;;19.33;100.00
58239;BME280;44037;55.638;37.356;2023-07-28T04:36:16;97486.69;;;19.41;100.00
58239;BME280;44037;55.638;37.356;2023-07-28T04:38:43;97482.25;;;19.41;100.00
58239;BME280;44037;55.638;37.356;2023-07-28T04:41:10;97492.59;;;19.44;100.00
58239;BME280;44037;55.638;37.356;2023-07-28T04:43:38;97506.19;;;19.51;100.00
58239;BME280;44037;55.638;37.356;2023-07-28T04:46:05;97516.13;;;19.60;100.00
58239;BME280;44037;55.638;37.356;2023-07-28T04:48:32;97547.25;;;19.81;100.00
58239;BME280;44037;55.638;37.356;2023-07-28T04:50:59;97556.47;;;20.03;100.00
58239;BME280;44037;55.638;37.356;2023-07-28T04:53:27;97555.59;;;20.17;100.00
58239;BME280;44037;55.638;37.356;2023-07-28T04:55:55;97570.34;;;20.19;100.00
58239;BME280;44037;55.638;37.356;2023-07-28T04:58:22;97591.19;;;20.22;100.00
58239;BME280;44037;55.638;37.356;2023-07-28T05:00:49;97593.41;;;20.29;100.00
58239;BME280;44037;55.638;37.356;2023-07-28T05:03:16;97582.38;;;20.51;100.00
58239;BME280;44037;55.638;37.356;2023-07-28T05:05:44;97569.03;;;20.81;100.00
58239;BME280;44037;55.638;37.356;2023-07-28T05:08:11;97563.41;;;21.13;100.00
58239;BME280;44037;55.638;37.356;2023-07-28T05:10:41;97556.88;;;21.19;100.00
58239;BME280;44037;55.638;37.356;2023-07-28T05:13:08;97574.38;;;21.20;100.00
58239;BME280;44037;55.638;37.356;2023-07-28T05:15:36;97566.81;;;21.28;100.00
58239;BME280;44037;55.638;37.356;2023-07-28T05:18:03;97576.81;;;21.49;100.00
58239;BME280;44037;55.638;37.356;2023-07-28T05:20:30;97572.81;;;21.82;100.00
58239;BME280;44037;55.638;37.356;2023-07-28T05:22:57;97571.34;;;22.04;100.00
58239;BME280;44037;55.638;37.356;2023-07-28T05:25:24;97565.72;;;22.08;100.00
58239;BME280;44037;55.638;37.356;2023-07-28T05:27:56;97573.53;;;22.10;100.00
58239;BME280;44037;55.638;37.356;2023-07-28T05:30:23;97575.00;;;22.14;100.00
58239;BME280;44037;55.638;37.356;2023-07-28T05:32:50;97569.28;;;22.20;100.00
58239;BME280;44037;55.638;37.356;2023-07-28T05:35:18;97573.22;;;22.39;100.00
58239;BME280;44037;55.638;37.356;2023-07-28T05:37:46;97571.88;;;22.70;100.00
58239;BME280;44037;55.638;37.356;2023-07-28T05:40:13;97573.47;;;22.84;100.00
58239;BME280;44037;55.638;37.356;2023-07-28T05:42:40;97573.31;;;22.75;100.00
58239;BME280;44037;55.638;37.356;2023-07-28T05:45:10;97565.13;;;22.66;100.00
58239;BME280;44037;55.638;37.356;2023-07-28T05:47:37;97580.16;;;22.53;100.00
58239;BME280;44037;55.638;37.356;2023-07-28T05:50:05;97582.03;;;22.64;100.00
58239;BME280;44037;55.638;37.356;2023-07-28T05:52:33;97585.88;;;22.95;100.00
58239;BME280;44037;55.638;37.356;2023-07-28T05:55:00;97569.91;;;23.21;100.00
58239;BME280;44037;55.638;37.356;2023-07-28T05:57:28;97566.13;;;23.12;100.00
58239;BME280;44037;55.638;37.356;2023-07-28T05:59:55;97582.69;;;23.03;100.00
58239;BME280;44037;55.638;37.356;2023-07-28T06:02:24;97593.19;;;22.92;100.00
58239;BME280;44037;55.638;37.356;2023-07-28T06:04:51;97598.81;;;22.87;100.00
58239;BME280;44037;55.638;37.356;2023-07-28T06:07:19;97604.72;;;22.91;100.00
58239;BME280;44037;55.638;37.356;2023-07-28T06:09:46;97614.88;;;22.84;100.00
58239;BME280;44037;55.638;37.356;2023-07-28T06:12:14;97622.03;;;22.58;100.00
58239;BME280;44037;55.638;37.356;2023-07-28T06:14:41;97596.34;;;22.48;100.00
58239;BME280;44037;55.638;37.356;2023-07-28T06:17:08;97589.03;;;22.52;100.00
58239;BME280;44037;55.638;37.356;2023-07-28T06:19:39;97592.34;;;22.43;100.00
58239;BME280;44037;55.638;37.356;2023-07-28T06:22:07;97604.47;;;22.32;100.00
58239;BME280;44037;55.638;37.356;2023-07-28T06:24:34;97614.28;;;22.43;100.00
58239;BME280;44037;55.638;37.356;2023-07-28T06:27:01;97649.22;;;22.47;100.00
58239;BME280;44037;55.638;37.356;2023-07-28T06:29:33;97691.09;;;22.25;100.00
58239;BME280;44037;55.638;37.356;2023-07-28T06:32:00;97747.94;;;21.91;100.00
58239;BME280;44037;55.638;37.356;2023-07-28T06:34:27;97737.84;;;21.57;100.00
58239;BME280;44037;55.638;37.356;2023-07-28T06:36:55;97707.41;;;21.26;100.00
58239;BME280;44037;55.638;37.356;2023-07-28T06:39:23;97733.19;;;20.93;100.00
58239;BME280;44037;55.638;37.356;2023-07-28T06:41:51;97791.63;;;20.69;100.00
58239;BME280;44037;55.638;37.356;2023-07-28T06:44:18;97840.13;;;20.51;100.00
58239;BME280;44037;55.638;37.356;2023-07-28T06:46:45;97847.34;;;20.33;100.00
58239;BME280;44037;55.638;37.356;2023-07-28T06:49:13;97832.81;;;20.11;100.00
58239;BME280;44037;55.638;37.356;2023-07-28T06:51:40;97824.22;;;19.93;100.00
58239;BME280;44037;55.638;37.356;2023-07-28T06:54:08;97796.94;;;19.79;100.00
58239;BME280;44037;55.638;37.356;2023-07-28T06:56:38;97766.13;;;19.67;100.00
58239;BME280;44037;55.638;37.356;2023-07-28T06:59:05;97708.53;;;19.64;100.00
58239;BME280;44037;55.638;37.356;2023-07-28T07:01:32;97728.69;;;19.63;100.00
58239;BME280;44037;55.638;37.356;2023-07-28T07:03:59;97729.72;;;19.61;100.00
58239;BME280;44037;55.638;37.356;2023-07-28T07:06:27;97707.63;;;19.49;100.00
58239;BME280;44037;55.638;37.356;2023-07-28T07:08:54;97688.94;;;19.39;100.00
58239;BME280;44037;55.638;37.356;2023-07-28T07:11:22;97661.44;;;19.30;100.00
58239;BME280;44037;55.638;37.356;2023-07-28T07:13:49;97635.19;;;19.30;100.00
58239;BME280;44037;55.638;37.356;2023-07-28T07:16:16;97648.88;;;19.36;100.00
58239;BME280;44037;55.638;37.356;2023-07-28T07:18:44;97635.31;;;19.43;100.00
58239;BME280;44037;55.638;37.356;2023-07-28T07:21:11;97629.69;;;19.35;100.00
58239;BME280;44037;55.638;37.356;2023-07-28T07:23:38;97636.13;;;19.29;100.00
58239;BME280;44037;55.638;37.356;2023-07-28T07:26:05;97631.91;;;19.27;100.00
58239;BME280;44037;55.638;37.356;2023-07-28T07:28:33;97632.75;;;19.27;100.00
58239;BME280;44037;55.638;37.356;2023-07-28T07:31:01;97653.31;;;19.35;100.00
58239;BME280;44037;55.638;37.356;2023-07-28T07:33:28;97659.41;;;19.50;100.00
58239;BME280;44037;55.638;37.356;2023-07-28T07:35:56;97679.72;;;19.62;100.00
58239;BME280;44037;55.638;37.356;2023-07-28T07:38:24;97683.75;;;19.68;100.00
58239;BME280;44037;55.638;37.356;2023-07-28T07:40:51;97680.78;;;19.74;100.00
58239;BME280;44037;55.638;37.356;2023-07-28T07:43:18;97687.91;;;19.72;100.00
58239;BME280;44037;55.638;37.356;2023-07-28T07:45:47;97692.78;;;19.64;100.00
58239;BME280;44037;55.638;37.356;2023-07-28T07:48:16;97698.19;;;19.61;100.00
58239;BME280;44037;55.638;37.356;2023-07-28T07:50:43;97710.03;;;19.68;100.00
58239;BME280;44037;55.638;37.356;2023-07-28T07:53:10;97694.75;;;19.75;100.00
58239;BME280;44037;55.638;37.356;2023-07-28T07:55:37;97697.47;;;19.73;100.00
58239;BME280;44037;55.638;37.356;2023-07-28T07:58:04;97701.19;;;19.69;100.00
58239;BME280;44037;55.638;37.356;2023-07-28T08:00:31;97703.44;;;19.61;100.00
58239;BME280;44037;55.638;37.356;2023-07-28T08:03:00;97712.44;;;19.57;100.00
58239;BME280;44037;55.638;37.356;2023-07-28T08:05:27;97710.13;;;19.67;100.00
58239;BME280;44037;55.638;37.356;2023-07-28T08:07:54;97700.63;;;19.94;100.00
58239;BME280;44037;55.638;37.356;2023-07-28T08:10:22;97705.81;;;20.39;100.00
58239;BME280;44037;55.638;37.356;2023-07-28T08:12:49;97711.44;;;20.48;100.00
58239;BME280;44037;55.638;37.356;2023-07-28T08:15:16;97691.81;;;20.39;100.00
58239;BME280;44037;55.638;37.356;2023-07-28T08:17:45;97688.19;;;20.69;100.00
58239;BME280;44037;55.638;37.356;2023-07-28T08:20:13;97684.63;;;20.84;100.00
58239;BME280;44037;55.638;37.356;2023-07-28T08:22:41;97680.03;;;21.01;100.00
58239;BME280;44037;55.638;37.356;2023-07-28T08:25:08;97684.16;;;21.32;100.00
58239;BME280;44037;55.638;37.356;2023-07-28T08:27:35;97684.66;;;21.65;100.00
58239;BME280;44037;55.638;37.356;2023-07-28T08:30:03;97699.53;;;21.66;100.00
58239;BME280;44037;55.638;37.356;2023-07-28T08:32:31;97710.28;;;21.36;100.00
58239;BME280;44037;55.638;37.356;2023-07-28T08:34:59;97719.91;;;21.09;100.00
58239;BME280;44037;55.638;37.356;2023-07-28T08:37:27;97722.31;;;21.40;100.00
58239;BME280;44037;55.638;37.356;2023-07-28T08:39:55;97729.66;;;21.35;100.00
58239;BME280;44037;55.638;37.356;2023-07-28T08:42:22;97723.59;;;21.47;100.00
58239;BME280;44037;55.638;37.356;2023-07-28T08:44:49;97726.53;;;21.83;100.00
58239;BME280;44037;55.638;37.356;2023-07-28T08:47:18;97734.78;;;22.17;100.00
58239;BME280;44037;55.638;37.356;2023-07-28T08:49:45;97736.56;;;22.29;100.00
58239;BME280;44037;55.638;37.356;2023-07-28T08:52:16;97720.94;;;22.39;100.00
58239;BME280;44037;55.638;37.356;2023-07-28T08:54:45;97713.53;;;22.70;100.00
58239;BME280;44037;55.638;37.356;2023-07-28T08:57:12;97713.91;;;22.90;100.00
58239;BME280;44037;55.638;37.356;2023-07-28T08:59:39;97717.69;;;23.23;100.00
58239;BME280;44037;55.638;37.356;2023-07-28T09:02:14;97719.84;;;23.89;100.00
58239;BME280;44037;55.638;37.356;2023-07-28T09:04:42;97717.03;;;24.60;100.00
58239;BME280;44037;55.638;37.356;2023-07-28T09:07:09;97727.16;;;24.44;100.00
58239;BME280;44037;55.638;37.356;2023-07-28T09:09:36;97742.69;;;23.90;100.00
58239;BME280;44037;55.638;37.356;2023-07-28T09:12:07;97753.56;;;23.38;100.00
58239;BME280;44037;55.638;37.356;2023-07-28T09:14:35;97760.28;;;22.81;100.00
58239;BME280;44037;55.638;37.356;2023-07-28T09:17:07;97771.84;;;22.41;100.00
58239;BME280;44037;55.638;37.356;2023-07-28T09:19:35;97779.09;;;22.24;100.00
58239;BME280;44037;55.638;37.356;2023-07-28T09:22:05;97791.66;;;22.21;100.00
58239;BME280;44037;55.638;37.356;2023-07-28T09:24:33;97794.38;;;22.19;100.00
58239;BME280;44037;55.638;37.356;2023-07-28T09:27:01;97818.16;;;21.92;100.00
58239;BME280;44037;55.638;37.356;2023-07-28T09:29:30;97839.28;;;21.65;100.00
58239;BME280;44037;55.638;37.356;2023-07-28T09:32:03;97829.56;;;21.38;100.00
58239;BME280;44037;55.638;37.356;2023-07-28T09:34:31;97819.63;;;21.14;100.00
58239;BME280;44037;55.638;37.356;2023-07-28T09:37:00;97795.31;;;20.96;100.00
58239;BME280;44037;55.638;37.356;2023-07-28T09:39:28;97793.69;;;20.93;100.00
58239;BME280;44037;55.638;37.356;2023-07-28T09:41:56;97793.34;;;20.99;100.00
58239;BME280;44037;55.638;37.356;2023-07-28T09:44:25;97783.25;;;21.06;100.00
58239;BME280;44037;55.638;37.356;2023-07-28T09:46:55;97790.81;;;20.98;100.00
58239;BME280;44037;55.638;37.356;2023-07-28T09:49:27;97812.41;;;20.89;100.00
58239;BME280;44037;55.638;37.356;2023-07-28T09:51:59;97798.16;;;20.78;100.00
58239;BME280;44037;55.638;37.356;2023-07-28T09:54:29;97782.63;;;20.74;100.00
58239;BME280;44037;55.638;37.356;2023-07-28T09:56:58;97799.75;;;20.66;100.00
58239;BME280;44037;55.638;37.356;2023-07-28T09:59:29;97816.94;;;20.58;100.00
58239;BME280;44037;55.638;37.356;2023-07-28T10:02:00;97821.13;;;20.46;100.00
58239;BME280;44037;55.638;37.356;2023-07-28T10:04:29;97834.75;;;20.38;100.00
58239;BME280;44037;55.638;37.356;2023-07-28T10:06:56;97837.28;;;20.39;100.00
58239;BME280;44037;55.638;37.356;2023-07-28T10:09:24;97841.13;;;20.48;100.00
58239;BME280;44037;55.638;37.356;2023-07-28T10:11:53;97818.91;;;20.54;100.00
58239;BME280;44037;55.638;37.356;2023-07-28T10:14:27;97808.00;;;20.60;100.00
58239;BME280;44037;55.638;37.356;2023-07-28T10:16:57;97826.31;;;20.62;100.00
58239;BME280;44037;55.638;37.356;2023-07-28T10:19:26;97825.66;;;20.58;100.00
58239;BME280;44037;55.638;37.356;2023-07-28T10:22:00;97813.63;;;20.68;100.00
58239;BME280;44037;55.638;37.356;2023-07-28T10:24:49;97798.34;;;20.75;100.00
58239;BME280;44037;55.638;37.356;2023-07-28T10:27:29;97783.88;;;20.82;100.00
58239;BME280;44037;55.638;37.356;2023-07-28T10:29:57;97776.50;;;20.87;100.00
58239;BME280;44037;55.638;37.356;2023-07-28T10:32:28;97789.75;;;21.00;100.00
58239;BME280;44037;55.638;37.356;2023-07-28T10:35:01;97775.72;;;21.14;100.00
58239;BME280;44037;55.638;37.356;2023-07-28T10:37:29;97768.81;;;21.26;100.00
58239;BME280;44037;55.638;37.356;2023-07-28T10:40:21;97755.63;;;21.41;100.00
58239;BME280;44037;55.638;37.356;2023-07-28T10:42:48;97746.16;;;21.51;100.00
58239;BME280;44037;55.638;37.356;2023-07-28T10:45:15;97731.72;;;21.57;100.00
58239;BME280;44037;55.638;37.356;2023-07-28T10:47:44;97740.53;;;21.70;100.00
58239;BME280;44037;55.638;37.356;2023-07-28T10:50:13;97753.94;;;21.80;100.00
58239;BME280;44037;55.638;37.356;2023-07-28T10:52:41;97766.78;;;21.72;100.00
58239;BME280;44037;55.638;37.356;2023-07-28T10:55:20;97762.41;;;21.58;100.00
58239;BME280;44037;55.638;37.356;2023-07-28T10:57:54;97760.34;;;21.48;100.00
58239;BME280;44037;55.638;37.356;2023-07-28T11:00:24;97749.03;;;21.33;100.00
58239;BME280;44037;55.638;37.356;2023-07-28T11:02:52;97742.31;;;21.29;100.00
58239;BME280;44037;55.638;37.356;2023-07-28T11:05:22;97736.44;;;21.39;100.00
58239;BME280;44037;55.638;37.356;2023-07-28T11:07:50;97725.28;;;21.48;100.00
58239;BME280;44037;55.638;37.356;2023-07-28T11:10:18;97712.84;;;21.50;100.00
58239;BME280;44037;55.638;37.356;2023-07-28T11:12:48;97696.63;;;21.43;100.00
58239;BME280;44037;55.638;37.356;2023-07-28T11:15:17;97708.06;;;21.29;100.00
58239;BME280;44037;55.638;37.356;2023-07-28T11:17:46;97712.53;;;21.14;100.00
58239;BME280;44037;55.638;37.356;2023-07-28T11:20:17;97737.63;;;21.20;100.00
58239;BME280;44037;55.638;37.356;2023-07-28T11:22:51;97771.34;;;21.28;100.00
58239;BME280;44037;55.638;37.356;2023-07-28T11:25:18;97781.59;;;21.32;100.00
58239;BME280;44037;55.638;37.356;2023-07-28T11:27:47;97788.59;;;21.46;100.00
58239;BME280;44037;55.638;37.356;2023-07-28T11:30:16;97796.72;;;21.56;100.00
58239;BME280;44037;55.638;37.356;2023-07-28T11:32:44;97808.81;;;21.60;100.00
58239;BME280;44037;55.638;37.356;2023-07-28T11:35:13;97828.28;;;21.58;100.00
58239;BME280;44037;55.638;37.356;2023-07-28T11:37:43;97832.34;;;21.49;100.00
58239;BME280;44037;55.638;37.356;2023-07-28T11:40:15;97841.13;;;21.35;100.00
58239;BME280;44037;55.638;37.356;2023-07-28T11:42:45;97842.06;;;21.34;100.00
58239;BME280;44037;55.638;37.356;2023-07-28T11:45:15;97834.19;;;21.34;100.00
58239;BME280;44037;55.638;37.356;2023-07-28T11:47:58;97833.22;;;21.35;100.00
58239;BME280;44037;55.638;37.356;2023-07-28T11:50:27;97832.19;;;21.38;100.00
58239;BME280;44037;55.638;37.356;2023-07-28T11:52:56;97833.56;;;21.43;100.00
58239;BME280;44037;55.638;37.356;2023-07-28T11:55:25;97855.16;;;21.21;100.00
58239;BME280;44037;55.638;37.356;2023-07-28T11:57:53;97860.44;;;20.92;100.00
58239;BME280;44037;55.638;37.356;2023-07-28T12:00:28;97870.50;;;20.71;100.00
58239;BME280;44037;55.638;37.356;2023-07-28T12:03:03;97885.50;;;20.54;100.00
58239;BME280;44037;55.638;37.356;2023-07-28T12:05:31;97888.25;;;20.37;100.00
58239;BME280;44037;55.638;37.356;2023-07-28T12:08:01;97884.31;;;20.30;100.00
58239;BME280;44037;55.638;37.356;2023-07-28T12:10:30;97897.28;;;20.33;100.00
58239;BME280;44037;55.638;37.356;2023-07-28T12:13:03;97896.88;;;20.24;100.00
58239;BME280;44037;55.638;37.356;2023-07-28T12:15:32;97893.69;;;20.19;100.00
58239;BME280;44037;55.638;37.356;2023-07-28T12:18:07;97892.59;;;20.38;100.00
58239;BME280;44037;55.638;37.356;2023-07-28T12:20:36;97904.94;;;20.52;100.00
58239;BME280;44037;55.638;37.356;2023-07-28T12:23:04;97907.00;;;20.47;100.00
58239;BME280;44037;55.638;37.356;2023-07-28T12:25:33;97913.91;;;20.33;100.00
58239;BME280;44037;55.638;37.356;2023-07-28T12:28:00;97913.69;;;20.22;100.00
58239;BME280;44037;55.638;37.356;2023-07-28T12:30:27;97923.03;;;20.12;100.00
58239;BME280;44037;55.638;37.356;2023-07-28T12:32:55;97910.81;;;20.10;100.00
58239;BME280;44037;55.638;37.356;2023-07-28T12:35:22;97915.31;;;20.08;100.00
58239;BME280;44037;55.638;37.356;2023-07-28T12:37:50;97922.72;;;20.02;100.00
58239;BME280;44037;55.638;37.356;2023-07-28T12:40:18;97928.50;;;19.92;100.00
58239;BME280;44037;55.638;37.356;2023-07-28T12:42:47;97929.69;;;19.87;100.00
58239;BME280;44037;55.638;37.356;2023-07-28T12:45:15;97934.31;;;19.82;100.00